Map

Track Data

SID SEASON NUMBER BASIN SUBBASIN NAME ISO_TIME NATURE LAT LON WMO_WIND WMO_PRES WMO_AGENCY TRACK_TYPE DIST2LAND LANDFALL IFLAG USA_AGENCY USA_ATCF_ID USA_LAT USA_LON USA_RECORD USA_STATUS USA_WIND USA_PRES USA_SSHS USA_R34_NE USA_R34_SE USA_R34_SW USA_R34_NW USA_R50_NE USA_R50_SE USA_R50_SW USA_R50_NW USA_R64_NE USA_R64_SE USA_R64_SW USA_R64_NW USA_POCI USA_ROCI USA_RMW USA_EYE TOKYO_LAT TOKYO_LON TOKYO_GRADE TOKYO_WIND TOKYO_PRES TOKYO_R50_DIR TOKYO_R50_LONG TOKYO_R50_SHORT TOKYO_R30_DIR TOKYO_R30_LONG TOKYO_R30_SHORT TOKYO_LAND CMA_LAT CMA_LON CMA_CAT CMA_WIND CMA_PRES HKO_LAT HKO_LON HKO_CAT HKO_WIND HKO_PRES NEWDELHI_LAT NEWDELHI_LON NEWDELHI_GRADE NEWDELHI_WIND NEWDELHI_PRES NEWDELHI_CI NEWDELHI_DP NEWDELHI_POCI REUNION_LAT REUNION_LON REUNION_TYPE REUNION_WIND REUNION_PRES REUNION_TNUM REUNION_CI REUNION_RMW REUNION_R34_NE REUNION_R34_SE REUNION_R34_SW REUNION_R34_NW REUNION_R50_NE REUNION_R50_SE REUNION_R50_SW REUNION_R50_NW REUNION_R64_NE REUNION_R64_SE REUNION_R64_SW REUNION_R64_NW BOM_LAT BOM_LON BOM_TYPE BOM_WIND BOM_PRES BOM_TNUM BOM_CI BOM_RMW BOM_R34_NE BOM_R34_SE BOM_R34_SW BOM_R34_NW BOM_R50_NE BOM_R50_SE BOM_R50_SW BOM_R50_NW BOM_R64_NE BOM_R64_SE BOM_R64_SW BOM_R64_NW BOM_ROCI BOM_POCI BOM_EYE BOM_POS_METHOD BOM_PRES_METHOD NADI_LAT NADI_LON NADI_CAT NADI_WIND NADI_PRES WELLINGTON_LAT WELLINGTON_LON WELLINGTON_WIND WELLINGTON_PRES DS824_LAT DS824_LON DS824_STAGE DS824_WIND DS824_PRES TD9636_LAT TD9636_LON TD9636_STAGE TD9636_WIND TD9636_PRES TD9635_LAT TD9635_LON TD9635_WIND TD9635_PRES TD9635_ROCI NEUMANN_LAT NEUMANN_LON NEUMANN_CLASS NEUMANN_WIND NEUMANN_PRES MLC_LAT MLC_LON MLC_CLASS MLC_WIND MLC_PRES USA_GUST BOM_GUST BOM_GUST_PER REUNION_GUST REUNION_GUST_PER USA_SEAHGT USA_SEARAD_NE USA_SEARAD_SE USA_SEARAD_SW USA_SEARAD_NW STORM_SPEED STORM_DIR
1984230N12226 1984 63 EP MM KENNA 1984-08-16 18:00:00 TS 12.4000 -134.300 30 hurdat_epa main 2329 2285 O_________O___ hurdat_epa EP111984 12.4000 -134.300 TD 30 -1 12.4000 -134.300 1 30 8 279
1984230N12226 1984 63 EP MM KENNA 1984-08-16 21:00:00 TS 12.4595 -134.690 main 2285 2245 P_________P___ EP111984 12.4601 -134.687 TD 32 -1 12.4578 -134.699 1 32 8 277
1984230N12226 1984 63 EP MM KENNA 1984-08-17 00:00:00 TS 12.5000 -135.100 35 hurdat_epa main 2245 2205 O_________O___ hurdat_epa EP111984 12.5000 -135.100 TS 35 0 12.5000 -135.100 2 35 8 273
1984230N12226 1984 63 EP MM KENNA 1984-08-17 03:00:00 TS 12.5096 -135.539 main 2205 2155 P_________P___ EP111984 12.5075 -135.550 TS 35 0 12.5160 -135.505 2 35 9 270
1984230N12226 1984 63 EP MM KENNA 1984-08-17 06:00:00 TS 12.5033 -135.980 35 hurdat_epa main 2155 2115 O_________P___ hurdat_epa EP111984 12.5000 -136.000 TS 35 0 12.5133 -135.920 2 35 8 269
1984230N12226 1984 63 EP MM KENNA 1984-08-17 09:00:00 TS 12.5009 -136.382 main 2115 2076 P_________P___ EP111984 12.4998 -136.393 TS 35 0 12.5040 -136.349 2 35 8 270
1984230N12226 1984 63 EP MM KENNA 1984-08-17 12:00:00 TS 12.5000 -136.800 35 hurdat_epa main 2076 2026 O_________O___ hurdat_epa EP111984 12.5000 -136.800 TS 35 0 12.5000 -136.800 2 35 9 270
1984230N12226 1984 63 EP MM KENNA 1984-08-17 15:00:00 TS 12.5018 -137.281 main 2026 1977 P_________P___ EP111984 12.4925 -137.285 TS 37 0 12.5298 -137.270 2 36 10 271
1984230N12226 1984 63 EP MM KENNA 1984-08-17 18:00:00 TS 12.5162 -137.791 40 hurdat_epa main 1977 1923 O_________P___ hurdat_epa EP111984 12.5000 -137.800 TS 40 0 12.5647 -137.762 2 37 10 273
1984230N12226 1984 63 EP MM KENNA 1984-08-17 21:00:00 TS 12.5605 -138.305 main 1923 1875 P_________P___ EP111984 12.5500 -138.315 TS 40 0 12.5922 -138.273 2 38 10 275
1984230N12226 1984 63 EP MM KENNA 1984-08-18 00:00:00 TS 12.6000 -138.800 40 hurdat_epa main 1875 1836 O_________O___ hurdat_epa EP111984 12.6000 -138.800 TS 40 0 12.6000 -138.800 2 40 9 273
1984230N12226 1984 63 EP MM KENNA 1984-08-18 03:00:00 TS 12.6115 -139.211 main 1836 1797 P_________P___ EP111984 12.6221 -139.170 TS 40 0 12.5795 -139.336 2 41 9 269
1984230N12226 1984 63 EP MM KENNA 1984-08-18 06:00:00 TS 12.5843 -139.671 40 hurdat_epa main 1787 1735 O_________P___ hurdat_epa EP111984 12.6000 -139.600 TS 40 0 12.5372 -139.885 2 42 11 264
1984230N12226 1984 63 EP CP KENNA 1984-08-18 09:00:00 TS 12.5055 -140.313 main 1735 1674 P_________P___ EP111984 12.5152 -140.270 TS 42 0 12.4763 -140.442 2 43 13 262
1984230N12226 1984 63 EP CP KENNA 1984-08-18 12:00:00 TS 12.4000 -141.000 45 hurdat_epa main 1674 1624 O_________O___ hurdat_epa EP111984 12.4000 -141.000 TS 45 0 12.4000 -141.000 2 45 13 260
1984230N12226 1984 63 EP CP KENNA 1984-08-18 15:00:00 TS 12.2911 -141.607 main 1624 1584 P_________P___ EP111984 12.2999 -141.630 TS 47 0 12.2940 -141.575 2 45 12 259
1984230N12226 1984 63 EP CP KENNA 1984-08-18 18:00:00 TS 12.1795 -142.173 50 hurdat_epa main 1575 1536 O_________P___ hurdat_epa EP111984 12.2000 -142.200 TS 50 0 12.1775 -142.145 2 45 11 259
1984230N12226 1984 63 EP CP KENNA 1984-08-18 21:00:00 TS 12.0709 -142.718 main 1536 1497 P_________P___ EP111984 12.0849 -142.730 TS 47 0 12.0722 -142.693 2 45 10 260
1984230N12226 1984 63 EP CP KENNA 1984-08-19 00:00:00 TS 12.0000 -143.220 45 hurdat_epa main 1497 1462 O_________O___ hurdat_epa EP111984 12.0000 -143.200 TS 45 0 12.0000 -143.200 2 45 9 265
1984230N12226 1984 63 EP CP KENNA 1984-08-19 03:00:00 TS 11.9818 -143.665 main 1453 1419 P_________P___ EP111984 11.9774 -143.615 TS 45 0 11.9846 -143.659 2 45 8 270
1984230N12226 1984 63 EP CP KENNA 1984-08-19 06:00:00 TS 12.0009 -144.075 45 hurdat_epa main 1419 1385 O_________P___ hurdat_epa EP111984 12.0000 -144.000 TS 45 0 12.0046 -144.075 2 45 8 274
1984230N12226 1984 63 EP CP KENNA 1984-08-19 09:00:00 TS 12.0335 -144.497 main 1385 1344 P_________P___ EP111984 12.0425 -144.415 TS 45 0 12.0472 -144.453 2 45 8 276
1984230N12226 1984 63 EP CP KENNA 1984-08-19 12:00:00 TS 12.0800 -144.880 45 hurdat_epa main 1344 1318 O_________O___ hurdat_epa EP111984 12.1000 -144.800 TS 45 0 12.1000 -144.800 2 45 7 278
1984230N12226 1984 63 EP CP KENNA 1984-08-19 15:00:00 TS 12.1309 -145.194 main 1318 1286 P_________P___ EP111984 12.1499 -145.115 TS 45 0 12.1548 -145.137 2 45 6 280
1984230N12226 1984 63 EP CP KENNA 1984-08-19 18:00:00 TS 12.1829 -145.469 45 hurdat_epa main 1286 1270 O_________P___ hurdat_epa EP111984 12.2000 -145.400 TS 45 0 12.2147 -145.445 2 45 6 280
1984230N12226 1984 63 EP CP KENNA 1984-08-19 21:00:00 TS 12.2280 -145.754 main 1262 1238 P_________P___ EP111984 12.2575 -145.707 TS 45 0 12.2673 -145.731 2 45 5 278
1984230N12226 1984 63 EP CP KENNA 1984-08-20 00:00:00 TS 12.2600 -146.020 45 hurdat_epa main 1238 1222 O_________O___ hurdat_epa EP111984 12.3000 -146.000 TS 45 0 12.3000 -146.000 2 45 5 276
1984230N12226 1984 63 EP CP KENNA 1984-08-20 03:00:00 TS 12.2783 -146.260 main 1214 1198 P_________P___ EP111984 12.3150 -146.258 TS 45 0 12.2965 -146.277 2 45 5 272
1984230N12226 1984 63 EP CP KENNA 1984-08-20 06:00:00 TS 12.2745 -146.488 45 hurdat_epa main 1198 1182 O_________P___ hurdat_epa EP111984 12.3000 -146.500 TS 45 0 12.2724 -146.538 2 45 5 265
1984230N12226 1984 63 EP CP KENNA 1984-08-20 09:00:00 TS 12.2389 -146.729 main 1190 1167 P_________P___ EP111984 12.2500 -146.758 TS 45 0 12.2371 -146.780 2 45 5 261
1984230N12226 1984 63 EP CP KENNA 1984-08-20 12:00:00 TS 12.2000 -146.968 45 hurdat_epa main 1167 1152 O_________O___ hurdat_epa EP111984 12.2000 -147.000 TS 45 0 12.2000 -147.000 2 45 5 264
1984230N12226 1984 63 EP CP KENNA 1984-08-20 15:00:00 TS 12.1932 -147.194 main 1152 1136 P_________P___ EP111984 12.2000 -147.215 TS 40 0 12.1709 -147.225 2 42 4 268
1984230N12226 1984 63 EP CP KENNA 1984-08-20 18:00:00 TS 12.1865 -147.394 35 hurdat_epa main 1136 1121 O_________P___ hurdat_epa EP111984 12.2000 -147.400 TS 35 0 12.1425 -147.425 2 40 4 262
1984230N12226 1984 63 EP CP KENNA 1984-08-20 21:00:00 TS 12.1420 -147.582 main 1129 1122 P_________P___ EP111984 12.1500 -147.580 TS 35 0 12.1178 -147.588 2 37 3 254
1984230N12226 1984 63 EP CP KENNA 1984-08-21 00:00:00 TS 12.1000 -147.700 35 hurdat_epa main 1122 1122 O_________O___ hurdat_epa EP111984 12.1000 -147.700 TS 35 0 12.1000 -147.700 2 35 2 251
1984230N12226 1984 63 EP CP KENNA 1984-08-21 03:00:00 TS 12.0926 -147.729 main 1122 1122 P_________P___ EP111984 12.0925 -147.722 TS 32 -1 12.0931 -147.748 2 33 0 0
1984230N12226 1984 63 EP CP KENNA 1984-08-21 06:00:00 TS 12.0983 -147.712 30 hurdat_epa main 1122 1122 O_________P___ hurdat_epa EP111984 12.1000 -147.700 TD 30 -1 12.0931 -147.748 2 32 0 0
1984230N12226 1984 63 EP CP KENNA 1984-08-21 09:00:00 TS 12.0991 -147.706 main 1122 1122 P_________P___ EP111984 12.1000 -147.700 TD 30 -1 12.0966 -147.724 2 31 0 0
1984230N12226 1984 63 EP CP KENNA 1984-08-21 12:00:00 TS 12.1000 -147.700 30 hurdat_epa main 1122 1122 O_________O___ hurdat_epa EP111984 12.1000 -147.700 TD 30 -1 12.1000 -147.700 1 30 0 0
1984230N12226 1984 63 EP CP KENNA 1984-08-21 15:00:00 TS 12.1002 -147.699 main 1122 1122 P_________P___ EP111984 12.1000 -147.700 TD 27 -1 12.1009 -147.694 1 27 0 0
1984230N12226 1984 63 EP CP KENNA 1984-08-21 18:00:00 TS 12.1000 -147.700 25 hurdat_epa main 1122 O_________O___ hurdat_epa EP111984 12.1000 -147.700 TD 25 -1 12.1000 -147.700 1 25 0 0

About IBTrACS Database

This database is a web-friendly format of International Best Track Archive for Climate Stewardship (IBTrACS), a global best track data archive curated by NOAA dating back to 1842.

Updated: 2021-10-21